Time;durP1;ratioP1;P1;durP2;ratioP2;P2;SDS_P1;SDS_P2;PMS_P1;PMS_P2;Temp;Humidity;BMP_temperature;BMP_pressure;BME280_temperature;BME280_humidity;BME280_pressure;Samples;Min_cycle;Max_cycle;Signal;HPM_P1;HPM_P2
2023/09/01 00:00:09;;;;;;;0.50;0.50;;;11.50;99.90;;;;;;5038108;28;20198;-74
2023/09/01 00:02:35;;;;;;;0.50;0.50;;;11.50;99.90;;;;;;5037835;28;20271;-75
2023/09/01 00:05:01;;;;;;;0.40;0.40;;;11.50;99.90;;;;;;5037650;28;20257;-74
2023/09/01 00:07:27;;;;;;;2.05;0.85;;;11.50;99.90;;;;;;5037820;28;20264;-76
2023/09/01 00:09:52;;;;;;;0.60;0.60;;;11.50;99.90;;;;;;5020168;28;20206;-75
2023/09/01 00:12:18;;;;;;;0.52;0.52;;;11.40;99.90;;;;;;5019526;28;20207;-75
2023/09/01 00:14:44;;;;;;;0.55;0.55;;;11.40;99.90;;;;;;5017156;28;20195;-75
2023/09/01 00:17:09;;;;;;;0.57;0.57;;;11.20;99.90;;;;;;5018307;28;20278;-75
2023/09/01 00:19:35;;;;;;;0.57;0.57;;;11.20;99.90;;;;;;5017941;28;20227;-76
2023/09/01 00:22:02;;;;;;;0.50;0.50;;;11.10;99.90;;;;;;5017986;28;20536;-74
2023/09/01 00:24:31;;;;;;;0.60;0.60;;;11.10;99.90;;;;;;4998034;28;20257;-74
2023/09/01 00:26:58;;;;;;;0.70;0.70;;;11.10;99.90;;;;;;5015063;28;20206;-75
2023/09/01 00:29:23;;;;;;;0.50;0.50;;;11.00;99.90;;;;;;5014936;28;20191;-75
2023/09/01 00:31:49;;;;;;;0.50;0.50;;;11.10;99.90;;;;;;5014908;28;20658;-74
2023/09/01 00:34:15;;;;;;;0.50;0.50;;;11.20;99.90;;;;;;5013688;28;20245;-74
2023/09/01 00:36:41;;;;;;;0.57;0.57;;;11.20;99.90;;;;;;4997201;28;20597;-74
2023/09/01 00:39:07;;;;;;;0.60;0.60;;;11.30;99.90;;;;;;5014927;28;20191;-74
2023/09/01 00:41:33;;;;;;;0.60;0.60;;;11.50;99.90;;;;;;5018675;28;20715;-74
2023/09/01 00:43:58;;;;;;;2.33;1.08;;;11.60;99.90;;;;;;5016616;28;20236;-75
2023/09/01 00:46:25;;;;;;;0.50;0.50;;;11.70;99.90;;;;;;5034499;28;20285;-78
2023/09/01 00:48:50;;;;;;;0.50;0.50;;;11.70;99.90;;;;;;5016616;28;20259;-78
2023/09/01 00:51:16;;;;;;;0.50;0.50;;;11.80;99.90;;;;;;5034245;28;20209;-78
2023/09/01 00:53:42;;;;;;;0.60;0.60;;;11.80;99.90;;;;;;5034154;28;20194;-78
2023/09/01 00:56:08;;;;;;;0.50;0.50;;;11.90;99.90;;;;;;5033102;28;20202;-78
2023/09/01 00:58:34;;;;;;;0.70;0.70;;;11.90;99.90;;;;;;5034005;28;20657;-78
2023/09/01 01:01:00;;;;;;;0.50;0.50;;;11.80;99.90;;;;;;5016744;28;20198;-75
2023/09/01 01:06:09;;;;;;;0.50;0.50;;;11.70;99.90;;;;;;5009497;28;20242;-76
2023/09/01 01:08:46;;;;;;;0.60;0.60;;;11.60;99.90;;;;;;5014132;28;20195;-76
2023/09/01 01:11:36;;;;;;;0.50;0.50;;;11.50;99.90;;;;;;5013822;28;20661;-77
2023/09/01 01:14:09;;;;;;;40.03;1.40;;;11.50;99.90;;;;;;4996445;28;20195;-76
2023/09/01 01:16:35;;;;;;;0.50;0.50;;;11.40;99.90;;;;;;5013299;28;20277;-76
2023/09/01 01:19:35;;;;;;;0.50;0.50;;;11.40;99.90;;;;;;5013654;28;20379;-75
2023/09/01 01:22:03;;;;;;;0.50;0.50;;;11.40;99.90;;;;;;5024854;28;20194;-76
2023/09/01 01:24:29;;;;;;;0.40;0.40;;;11.40;99.90;;;;;;5013921;28;20302;-75
2023/09/01 01:26:55;;;;;;;0.50;0.50;;;11.40;99.90;;;;;;5013536;28;20286;-74
2023/09/01 01:29:20;;;;;;;0.50;0.50;;;11.40;99.90;;;;;;5013619;28;20195;-74
2023/09/01 01:31:46;;;;;;;0.50;0.50;;;11.40;99.90;;;;;;5013415;28;20586;-75
2023/09/01 01:34:24;;;;;;;0.52;0.52;;;11.40;99.90;;;;;;5013673;28;20583;-75
2023/09/01 01:37:08;;;;;;;0.50;0.50;;;11.50;99.90;;;;;;4995038;28;20296;-74
2023/09/01 01:39:35;;;;;;;0.63;0.63;;;11.60;99.90;;;;;;5013483;28;20218;-75
2023/09/01 01:42:10;;;;;;;0.40;0.40;;;11.60;99.90;;;;;;5013382;28;20330;-74
2023/09/01 01:44:47;;;;;;;0.50;0.50;;;11.60;99.90;;;;;;5007011;28;20721;-74
2023/09/01 01:47:14;;;;;;;1.27;0.73;;;11.40;99.90;;;;;;5013513;28;20678;-74
2023/09/01 01:49:39;;;;;;;0.70;0.70;;;11.50;99.90;;;;;;5023763;28;20210;-75
2023/09/01 01:52:05;;;;;;;0.52;0.52;;;11.40;99.90;;;;;;5011838;28;20585;-75
2023/09/01 01:54:31;;;;;;;0.50;0.50;;;11.40;99.90;;;;;;5013129;28;20205;-75
2023/09/01 01:56:57;;;;;;;0.52;0.52;;;11.30;99.90;;;;;;5013391;28;20249;-75
2023/09/01 01:59:23;;;;;;;0.60;0.60;;;11.30;99.90;;;;;;5008013;28;20220;-74
2023/09/01 02:01:49;;;;;;;0.95;0.70;;;11.30;99.90;;;;;;5015209;28;20202;-75
2023/09/01 02:04:15;;;;;;;0.50;0.50;;;11.20;99.90;;;;;;5009294;28;20234;-74
2023/09/01 02:06:43;;;;;;;0.50;0.50;;;11.20;99.90;;;;;;4995614;28;20216;-74
2023/09/01 02:09:09;;;;;;;0.70;0.70;;;11.10;99.90;;;;;;5012838;28;20202;-74
2023/09/01 02:11:39;;;;;;;0.50;0.50;;;11.10;99.90;;;;;;4982822;28;20211;-74
2023/09/01 02:14:05;;;;;;;0.50;0.50;;;11.10;99.90;;;;;;4975696;28;20207;-75
2023/09/01 02:16:34;;;;;;;0.45;0.45;;;11.00;99.90;;;;;;5003165;28;20291;-73
2023/09/01 02:19:00;;;;;;;0.60;0.60;;;11.10;99.90;;;;;;4993177;28;20302;-71
2023/09/01 02:21:26;;;;;;;0.60;0.60;;;11.10;99.90;;;;;;4984386;28;20657;-71
2023/09/01 02:23:52;;;;;;;0.55;0.55;;;11.10;99.90;;;;;;4976239;28;20659;-71
2023/09/01 02:26:22;;;;;;;1.15;0.90;;;11.10;99.90;;;;;;4992825;28;20207;-71
2023/09/01 02:28:52;;;;;;;0.65;0.65;;;11.20;99.90;;;;;;4992861;28;20662;-71
2023/09/01 02:31:18;;;;;;;0.60;0.60;;;11.30;99.90;;;;;;4975264;28;20242;-72
2023/09/01 02:33:47;;;;;;;0.50;0.50;;;11.20;99.90;;;;;;4992727;28;20195;-70
2023/09/01 02:36:30;;;;;;;0.60;0.60;;;11.30;99.90;;;;;;4992502;28;20196;-71
2023/09/01 02:38:57;;;;;;;1.05;0.85;;;11.30;99.90;;;;;;4992276;28;20196;-71
2023/09/01 02:41:24;;;;;;;0.50;0.50;;;11.30;99.90;;;;;;4974793;28;20654;-71
2023/09/01 02:43:51;;;;;;;0.65;0.65;;;11.40;99.90;;;;;;4992878;28;20231;-71
2023/09/01 02:46:16;;;;;;;0.40;0.40;;;11.40;99.90;;;;;;4992851;28;20239;-71
2023/09/01 02:48:42;;;;;;;0.80;0.80;;;11.50;99.90;;;;;;4992371;28;20627;-71
2023/09/01 02:51:08;;;;;;;0.60;0.60;;;11.60;99.90;;;;;;4992668;28;20217;-70
2023/09/01 02:53:36;;;;;;;0.60;0.60;;;11.50;99.90;;;;;;4992703;28;20589;-71
2023/09/01 02:56:03;;;;;;;0.60;0.60;;;11.60;99.90;;;;;;4999730;28;20225;-71
2023/09/01 02:58:29;;;;;;;0.57;0.57;;;11.50;99.90;;;;;;4994402;28;20233;-71
2023/09/01 03:00:55;;;;;;;0.50;0.50;;;11.50;99.90;;;;;;5005253;28;20219;-71
2023/09/01 03:03:23;;;;;;;0.80;0.80;;;11.60;99.90;;;;;;4991156;28;20207;-70
2023/09/01 03:05:50;;;;;;;0.50;0.50;;;11.50;99.90;;;;;;4975053;28;20246;-71
2023/09/01 03:08:20;;;;;;;0.55;0.55;;;11.50;99.90;;;;;;4984819;28;20203;-71
2023/09/01 03:10:46;;;;;;;0.43;0.43;;;11.60;99.90;;;;;;4992059;28;20670;-71
2023/09/01 03:13:12;;;;;;;0.60;0.60;;;11.60;99.90;;;;;;4975126;28;20307;-71
2023/09/01 03:15:40;;;;;;;0.50;0.50;;;11.70;99.90;;;;;;4992312;28;20214;-71
2023/09/01 03:18:06;;;;;;;0.50;0.50;;;11.80;99.90;;;;;;4974842;28;20203;-72
2023/09/01 03:20:32;;;;;;;0.50;0.50;;;11.80;99.90;;;;;;4974143;28;20200;-71
2023/09/01 03:22:58;;;;;;;0.60;0.60;;;11.90;99.90;;;;;;4992522;28;20692;-71
2023/09/01 03:25:24;;;;;;;0.50;0.50;;;11.90;99.90;;;;;;4974930;28;20206;-71
2023/09/01 03:27:52;;;;;;;0.50;0.50;;;12.00;99.90;;;;;;4975058;28;20207;-70
2023/09/01 03:30:19;;;;;;;0.50;0.50;;;12.00;99.90;;;;;;4974518;28;20241;-71
2023/09/01 03:32:45;;;;;;;0.57;0.57;;;12.10;99.90;;;;;;4974856;28;20202;-70
2023/09/01 03:35:11;;;;;;;0.50;0.50;;;12.10;99.90;;;;;;4992371;28;20533;-69
2023/09/01 03:37:37;;;;;;;0.50;0.50;;;12.10;99.90;;;;;;4992271;28;20274;-70
2023/09/01 03:40:09;;;;;;;0.43;0.43;;;12.20;99.90;;;;;;4992205;28;20613;-70
2023/09/01 03:42:39;;;;;;;0.52;0.52;;;12.20;99.90;;;;;;4992271;28;20191;-70
2023/09/01 03:45:05;;;;;;;0.50;0.50;;;12.20;99.90;;;;;;4992329;28;20682;-69
2023/09/01 03:47:31;;;;;;;0.50;0.50;;;12.30;99.90;;;;;;4992180;28;20651;-70
2023/09/01 03:49:58;;;;;;;0.43;0.43;;;12.20;99.90;;;;;;4992067;28;20187;-71
2023/09/01 03:52:24;;;;;;;0.50;0.50;;;12.30;99.90;;;;;;4982650;28;20294;-70
2023/09/01 03:54:50;;;;;;;0.50;0.50;;;12.30;99.90;;;;;;4994200;28;20648;-71
2023/09/01 03:57:19;;;;;;;0.65;0.65;;;12.40;99.90;;;;;;4994127;28;20214;-69
2023/09/01 03:59:47;;;;;;;0.60;0.60;;;12.40;99.90;;;;;;4995569;28;20650;-70
2023/09/01 04:02:13;;;;;;;0.50;0.50;;;12.40;99.90;;;;;;5015464;28;20765;-69
2023/09/01 04:04:39;;;;;;;0.52;0.52;;;12.40;99.90;;;;;;4997464;28;20349;-69
2023/09/01 04:07:09;;;;;;;0.60;0.60;;;12.50;99.90;;;;;;4992068;28;20226;-69
2023/09/01 04:09:35;;;;;;;0.50;0.50;;;12.50;99.90;;;;;;4995631;28;20659;-69
2023/09/01 04:12:03;;;;;;;0.60;0.60;;;12.50;99.90;;;;;;4995286;28;20200;-69
2023/09/01 04:14:29;;;;;;;0.50;0.50;;;12.40;99.90;;;;;;4995303;28;20184;-69
2023/09/01 04:16:54;;;;;;;0.60;0.60;;;12.50;99.90;;;;;;4995670;28;20298;-69
2023/09/01 04:19:20;;;;;;;0.50;0.50;;;12.50;99.90;;;;;;4977939;28;20345;-70
2023/09/01 04:21:57;;;;;;;;;;;;;;;;;;;;;
2023/09/01 04:24:26;;;;;;;0.77;0.77;;;12.60;99.90;;;;;;4995302;28;20194;-69
2023/09/01 04:26:52;;;;;;;0.60;0.60;;;12.60;99.90;;;;;;4977764;28;20199;-70
2023/09/01 04:29:22;;;;;;;0.60;0.60;;;12.60;99.90;;;;;;4986633;28;20209;-70
2023/09/01 04:31:48;;;;;;;0.70;0.70;;;12.60;99.90;;;;;;4994217;28;20676;-70
2023/09/01 04:34:14;;;;;;;0.50;0.50;;;12.60;99.90;;;;;;4995222;28;20196;-69
2023/09/01 04:36:40;;;;;;;0.60;0.60;;;12.60;99.90;;;;;;4995213;28;20842;-74
2023/09/01 04:39:06;;;;;;;0.57;0.57;;;12.60;99.90;;;;;;4995160;28;20187;-74
2023/09/01 04:41:32;;;;;;;0.50;0.50;;;12.60;99.90;;;;;;4995028;28;20278;-74
2023/09/01 04:43:58;;;;;;;0.52;0.52;;;12.60;99.90;;;;;;4995145;28;20560;-73
2023/09/01 04:46:24;;;;;;;0.50;0.50;;;12.60;99.90;;;;;;4994876;28;20273;-74
2023/09/01 04:48:50;;;;;;;0.50;0.50;;;12.60;99.90;;;;;;5004386;28;20210;-74
2023/09/01 04:51:16;;;;;;;0.50;0.50;;;12.60;99.90;;;;;;5014471;28;20207;-74
2023/09/01 04:53:41;;;;;;;0.60;0.60;;;12.60;99.90;;;;;;5014306;28;20554;-73
2023/09/01 04:56:07;;;;;;;0.50;0.50;;;12.60;99.90;;;;;;5014408;28;20262;-74
2023/09/01 04:58:33;;;;;;;0.50;0.50;;;12.60;99.90;;;;;;5014013;28;20191;-74
2023/09/01 05:00:58;;;;;;;0.40;0.40;;;12.60;99.90;;;;;;5014269;28;20248;-74
2023/09/01 05:03:25;;;;;;;0.57;0.57;;;12.50;99.90;;;;;;5007549;28;20593;-74
2023/09/01 05:05:51;;;;;;;0.47;0.47;;;12.50;99.90;;;;;;5012634;28;20223;-74
2023/09/01 05:08:17;;;;;;;0.50;0.50;;;12.50;99.90;;;;;;5014146;28;20265;-73
2023/09/01 05:10:44;;;;;;;0.50;0.50;;;12.40;99.90;;;;;;5013303;28;20209;-73
2023/09/01 05:13:09;;;;;;;0.50;0.50;;;12.50;99.90;;;;;;4996461;28;20309;-74
2023/09/01 05:15:35;;;;;;;0.50;0.50;;;12.50;99.90;;;;;;5013796;28;20222;-74
2023/09/01 05:18:02;;;;;;;0.88;0.82;;;12.50;99.90;;;;;;5013889;28;20183;-73
2023/09/01 05:20:27;;;;;;;1.13;1.13;;;12.50;99.90;;;;;;4996207;28;20661;-73
2023/09/01 05:22:53;;;;;;;0.45;0.45;;;12.50;99.90;;;;;;5020426;28;20205;-73
2023/09/01 05:25:19;;;;;;;0.47;0.47;;;12.50;99.90;;;;;;5014050;28;20199;-74
2023/09/01 05:27:44;;;;;;;0.50;0.50;;;12.50;99.90;;;;;;4996264;28;20294;-73
2023/09/01 05:30:12;;;;;;;0.40;0.40;;;12.50;99.90;;;;;;5013624;28;20260;-74
2023/09/01 05:32:38;;;;;;;0.77;0.77;;;12.60;99.90;;;;;;5013634;28;20673;-74
2023/09/01 05:35:04;;;;;;;0.50;0.50;;;12.60;99.90;;;;;;5013836;28;20194;-74
2023/09/01 05:37:30;;;;;;;0.65;0.65;;;12.70;99.90;;;;;;5013479;28;20676;-74
2023/09/01 05:39:56;;;;;;;0.73;0.60;;;12.70;99.90;;;;;;5013730;28;20195;-74
2023/09/01 05:42:21;;;;;;;0.60;0.60;;;12.80;99.90;;;;;;4995824;28;20202;-74
2023/09/01 05:44:47;;;;;;;0.63;0.63;;;12.90;99.90;;;;;;5020793;28;20206;-74
2023/09/01 05:47:13;;;;;;;0.50;0.50;;;13.00;99.90;;;;;;5033543;28;20256;-74
2023/09/01 05:49:39;;;;;;;0.65;0.65;;;13.10;99.90;;;;;;5033240;28;20202;-74
2023/09/01 05:52:05;;;;;;;0.40;0.40;;;13.30;99.90;;;;;;5033040;28;20206;-73
2023/09/01 05:54:31;;;;;;;0.50;0.50;;;13.40;99.90;;;;;;5033173;28;20201;-72
2023/09/01 05:56:56;;;;;;;0.50;0.50;;;13.50;99.90;;;;;;5015350;28;20194;-72
2023/09/01 05:59:22;;;;;;;0.60;0.60;;;13.60;99.90;;;;;;5010944;28;20633;-74
2023/09/01 06:01:48;;;;;;;0.40;0.40;;;13.80;99.90;;;;;;5013258;28;20240;-73
2023/09/01 06:04:13;;;;;;;0.43;0.43;;;13.90;99.90;;;;;;5013077;28;20231;-74
2023/09/01 06:06:40;;;;;;;0.35;0.35;;;14.00;99.90;;;;;;5012945;28;20532;-74
2023/09/01 06:09:09;;;;;;;0.40;0.40;;;14.10;99.90;;;;;;4995702;28;20227;-74
2023/09/01 06:11:36;;;;;;;0.47;0.47;;;14.10;99.90;;;;;;4994838;28;20214;-74
2023/09/01 06:14:03;;;;;;;0.40;0.40;;;14.20;99.90;;;;;;4995372;28;20681;-73
2023/09/01 06:16:29;;;;;;;0.43;0.43;;;14.30;99.90;;;;;;4995120;28;20195;-73
2023/09/01 06:18:59;;;;;;;0.40;0.40;;;14.30;99.90;;;;;;5012831;28;20194;-74
2023/09/01 06:21:25;;;;;;;0.40;0.40;;;14.30;99.90;;;;;;5012436;28;20203;-73
2023/09/01 06:23:51;;;;;;;0.50;0.50;;;14.30;99.90;;;;;;4995040;28;20241;-74
2023/09/01 06:26:18;;;;;;;0.68;0.68;;;14.30;99.90;;;;;;5012786;28;20203;-74
2023/09/01 06:28:45;;;;;;;0.50;0.50;;;14.20;99.90;;;;;;5012672;28;20199;-73
2023/09/01 06:31:13;;;;;;;3.13;0.77;;;14.20;99.90;;;;;;5012626;28;20213;-73
2023/09/01 06:33:43;;;;;;;0.40;0.40;;;14.20;99.90;;;;;;5012463;28;20226;-73
2023/09/01 06:36:13;;;;;;;0.47;0.47;;;14.20;99.90;;;;;;5012696;28;20218;-74
2023/09/01 06:38:40;;;;;;;0.40;0.40;;;14.20;99.90;;;;;;4994867;28;20248;-72
2023/09/01 06:41:06;;;;;;;0.47;0.47;;;14.30;99.90;;;;;;5020271;28;20201;-72
2023/09/01 06:43:31;;;;;;;0.47;0.47;;;14.50;99.90;;;;;;5032260;28;20281;-72
2023/09/01 06:45:58;;;;;;;0.63;0.63;;;14.70;99.90;;;;;;5032349;28;20222;-72
2023/09/01 06:48:24;;;;;;;0.40;0.40;;;14.90;99.90;;;;;;5014647;28;20680;-73
2023/09/01 06:50:49;;;;;;;0.50;0.50;;;15.10;99.90;;;;;;5032372;28;20256;-72
2023/09/01 06:53:15;;;;;;;0.30;0.30;;;15.20;99.90;;;;;;5032192;28;20194;-71
2023/09/01 06:55:41;;;;;;;0.40;0.40;;;15.30;99.90;;;;;;5027523;28;20218;-69
2023/09/01 06:58:07;;;;;;;0.93;0.80;;;15.50;99.90;;;;;;4995129;28;20562;-67
2023/09/01 07:00:32;;;;;;;0.82;0.70;;;15.60;99.90;;;;;;5012062;28;20191;-68
2023/09/01 07:02:58;;;;;;;0.52;0.50;;;15.80;99.90;;;;;;5012000;28;20278;-67
2023/09/01 07:05:24;;;;;;;0.30;0.30;;;16.00;99.90;;;;;;5011793;28;20242;-68
2023/09/01 07:07:52;;;;;;;0.30;0.30;;;16.20;99.90;;;;;;5012301;28;20199;-68
2023/09/01 07:10:17;;;;;;;0.40;0.40;;;16.30;99.90;;;;;;5011791;28;20198;-69
2023/09/01 07:12:44;;;;;;;0.50;0.50;;;16.40;99.90;;;;;;5012127;28;20604;-68
2023/09/01 07:15:10;;;;;;;1.65;0.98;;;16.50;99.90;;;;;;5017748;28;20206;-68
2023/09/01 07:17:36;;;;;;;0.60;0.60;;;16.50;99.90;;;;;;5011938;28;20263;-68
2023/09/01 07:20:03;;;;;;;0.60;0.50;;;16.60;99.90;;;;;;5012131;28;20222;-69
2023/09/01 07:22:29;;;;;;;0.57;0.57;;;16.80;99.90;;;;;;5012184;28;20234;-70
2023/09/01 07:24:54;;;;;;;0.60;0.60;;;16.90;99.90;;;;;;5012416;28;20669;-69
2023/09/01 07:27:20;;;;;;;0.50;0.50;;;17.10;99.90;;;;;;5011875;28;20662;-69
2023/09/01 07:29:48;;;;;;;0.30;0.30;;;17.20;99.90;;;;;;5011965;28;20190;-69
2023/09/01 07:32:18;;;;;;;0.35;0.35;;;17.10;99.90;;;;;;4994276;28;20577;-68
2023/09/01 07:34:47;;;;;;;0.22;0.22;;;16.90;99.90;;;;;;4997590;28;20195;-69
2023/09/01 07:37:13;;;;;;;0.73;0.73;;;16.70;99.90;;;;;;5022514;28;20198;-69
2023/09/01 07:39:38;;;;;;;0.30;0.30;;;16.50;99.90;;;;;;5035477;28;20232;-70
2023/09/01 07:42:05;;;;;;;0.28;0.28;;;16.50;99.90;;;;;;5035162;28;20716;-69
2023/09/01 07:44:31;;;;;;;0.40;0.40;;;16.50;99.90;;;;;;5035297;28;20198;-70
2023/09/01 07:46:56;;;;;;;0.40;0.40;;;16.50;99.90;;;;;;5035147;28;20544;-69
2023/09/01 07:49:22;;;;;;;0.30;0.30;;;16.50;99.90;;;;;;5035233;28;20216;-69
2023/09/01 07:51:49;;;;;;;0.45;0.45;;;16.50;99.90;;;;;;5031686;28;20203;-69
2023/09/01 07:54:15;;;;;;;0.60;0.60;;;16.70;99.90;;;;;;5015497;28;20277;-70
2023/09/01 07:56:41;;;;;;;0.40;0.40;;;16.80;99.90;;;;;;5015403;28;20701;-69
2023/09/01 07:59:07;;;;;;;2.17;0.73;;;17.00;99.90;;;;;;4997813;28;20195;-69
2023/09/01 08:01:32;;;;;;;0.28;0.28;;;17.30;99.90;;;;;;5015269;28;20269;-68
2023/09/01 08:04:02;;;;;;;0.30;0.30;;;17.40;99.90;;;;;;5015264;28;20254;-69
2023/09/01 08:06:29;;;;;;;0.30;0.30;;;17.60;99.90;;;;;;5015430;28;20669;-72
2023/09/01 08:08:56;;;;;;;0.30;0.30;;;17.60;99.90;;;;;;5015551;28;20482;-72
2023/09/01 08:11:21;;;;;;;0.50;0.50;;;17.70;99.90;;;;;;4997148;28;20304;-71
2023/09/01 08:13:47;;;;;;;39.83;1.20;;;17.80;99.90;;;;;;5015304;28;20654;-72
2023/09/01 08:16:15;;;;;;;0.50;0.50;;;17.70;99.90;;;;;;5015237;28;20205;-72
2023/09/01 08:18:41;;;;;;;0.30;0.30;;;17.70;99.90;;;;;;5015468;28;20696;-73
2023/09/01 08:21:07;;;;;;;1.30;0.52;;;17.70;99.90;;;;;;5015514;28;20305;-73
2023/09/01 08:23:32;;;;;;;0.30;0.30;;;18.00;99.90;;;;;;5015178;28;20230;-73
2023/09/01 08:25:58;;;;;;;0.30;0.30;;;18.30;99.90;;;;;;5015297;28;20195;-73
2023/09/01 08:28:23;;;;;;;0.40;0.40;;;18.60;99.90;;;;;;5014998;28;20195;-73
2023/09/01 08:30:49;;;;;;;0.30;0.30;;;18.50;99.90;;;;;;5015043;28;20677;-73
2023/09/01 08:33:17;;;;;;;0.47;0.47;;;18.50;99.90;;;;;;5019935;28;20245;-73
2023/09/01 08:35:43;;;;;;;0.30;0.30;;;18.70;99.90;;;;;;5034894;28;20194;-73
2023/09/01 08:38:09;;;;;;;0.32;0.32;;;18.70;99.90;;;;;;5034758;28;20198;-73
2023/09/01 08:40:34;;;;;;;0.68;0.68;;;18.50;99.90;;;;;;5034662;28;20190;-72
2023/09/01 08:43:03;;;;;;;0.40;0.40;;;18.40;99.90;;;;;;5016787;28;20206;-73
2023/09/01 08:45:31;;;;;;;0.20;0.20;;;18.20;99.90;;;;;;5033796;28;20240;-72
2023/09/01 08:47:57;;;;;;;11.00;0.50;;;18.10;99.90;;;;;;5031875;28;20191;-72
2023/09/01 08:50:23;;;;;;;0.10;0.10;;;17.90;99.90;;;;;;5014676;28;20245;-72
2023/09/01 08:52:49;;;;;;;0.43;0.20;;;17.70;99.90;;;;;;5026588;28;20553;-73
2023/09/01 08:55:21;;;;;;;3.92;0.90;;;17.60;99.90;;;;;;5014792;28;20240;-72
2023/09/01 08:57:50;;;;;;;0.15;0.15;;;17.50;99.90;;;;;;4994992;28;20196;-73
2023/09/01 09:00:16;;;;;;;37.10;0.63;;;17.50;99.90;;;;;;4995105;28;20191;-72
2023/09/01 09:02:44;;;;;;;0.10;0.10;;;17.50;99.90;;;;;;4977449;28;20651;-73
2023/09/01 09:05:13;;;;;;;0.20;0.20;;;17.50;99.90;;;;;;4977066;28;20235;-73
2023/09/01 09:07:39;;;;;;;0.10;0.10;;;17.50;99.90;;;;;;4997408;28;20194;-74
2023/09/01 09:10:08;;;;;;;1.65;0.40;;;17.50;99.90;;;;;;5014617;28;20191;-73
2023/09/01 09:12:38;;;;;;;0.10;0.10;;;17.60;99.90;;;;;;5008751;28;20278;-73
2023/09/01 09:15:05;;;;;;;0.25;0.20;;;17.80;99.90;;;;;;5014365;28;20637;-73
2023/09/01 09:24:07;;;;;;;0.10;0.10;;;18.20;99.90;;;;;;4954611;29;20208;-74
2023/09/01 09:26:33;;;;;;;0.10;0.10;;;18.50;99.90;;;;;;4937548;29;20260;-74
2023/09/01 09:29:06;;;;;;;0.10;0.10;;;18.70;99.90;;;;;;4953990;28;20593;-75
2023/09/01 09:31:44;;;;;;;0.47;0.30;;;18.80;99.90;;;;;;4972471;28;20215;-75
2023/09/01 09:34:17;;;;;;;0.25;0.20;;;18.90;99.90;;;;;;4972597;28;20200;-75
2023/09/01 09:36:47;;;;;;;0.15;0.15;;;19.10;99.90;;;;;;4972427;28;20567;-74
2023/09/01 09:39:33;;;;;;;0.73;0.32;;;19.10;99.90;;;;;;4972709;28;20196;-75
2023/09/01 09:41:58;;;;;;;0.47;0.32;;;19.10;99.90;;;;;;4972339;28;20605;-74
2023/09/01 09:44:33;;;;;;;0.08;0.08;;;19.00;99.90;;;;;;4967831;28;20192;-75
2023/09/01 09:47:09;;;;;;;0.10;0.10;;;19.10;99.90;;;;;;4953238;29;20208;-75
2023/09/01 09:49:39;;;;;;;0.45;0.45;;;19.10;99.90;;;;;;4952738;29;20247;-76
2023/09/01 09:52:08;;;;;;;0.10;0.10;;;19.20;99.90;;;;;;4950571;29;20368;-76
2023/09/01 09:54:37;;;;;;;0.30;0.30;;;19.20;99.90;;;;;;4952776;28;20197;-76
2023/09/01 09:57:10;;;;;;;0.10;0.10;;;19.30;99.90;;;;;;4952149;28;20197;-77
2023/09/01 09:59:53;;;;;;;0.10;0.10;;;19.50;99.90;;;;;;4964379;28;20350;-77
2023/09/01 10:02:30;;;;;;;0.00;0.00;;;19.70;99.90;;;;;;4995592;28;20207;-74
2023/09/01 10:04:58;;;;;;;0.08;0.08;;;19.80;99.90;;;;;;5012896;28;20234;-73
2023/09/01 10:07:25;;;;;;;0.28;0.28;;;20.00;99.90;;;;;;4995316;28;20217;-76
2023/09/01 10:09:54;;;;;;;0.10;0.10;;;19.90;99.90;;;;;;5013293;28;20199;-76
2023/09/01 10:12:20;;;;;;;0.63;0.63;;;20.00;99.90;;;;;;4995101;28;20305;-75
2023/09/01 10:14:47;;;;;;;0.10;0.10;;;20.20;99.90;;;;;;5013024;28;20278;-76
2023/09/01 10:17:14;;;;;;;1.30;0.85;;;20.20;99.90;;;;;;5013112;28;20202;-76
2023/09/01 10:19:41;;;;;;;0.20;0.20;;;20.20;99.90;;;;;;5012829;28;20225;-76
2023/09/01 10:22:07;;;;;;;0.20;0.20;;;20.30;99.90;;;;;;5012809;28;20190;-75
2023/09/01 10:24:33;;;;;;;0.52;0.30;;;20.50;99.90;;;;;;5012888;28;20330;-75
2023/09/01 10:27:09;;;;;;;1.55;0.25;;;20.70;99.90;;;;;;5027962;28;20214;-71
2023/09/01 10:29:35;;;;;;;0.17;0.17;;;20.80;99.90;;;;;;5032396;28;20194;-71
2023/09/01 10:32:17;;;;;;;0.00;0.00;;;21.00;99.90;;;;;;5032513;28;20619;-71
2023/09/01 10:34:53;;;;;;;2.33;0.35;;;21.10;99.90;;;;;;5032213;28;20209;-71
2023/09/01 10:37:27;;;;;;;0.10;0.10;;;21.00;99.90;;;;;;5014534;28;20211;-71
2023/09/01 10:39:54;;;;;;;0.10;0.10;;;21.00;99.90;;;;;;5014609;28;20635;-70
2023/09/01 10:42:48;;;;;;;25.67;0.32;;;21.50;99.90;;;;;;5014278;28;20233;-70
2023/09/01 10:45:14;;;;;;;0.10;0.10;;;22.10;99.90;;;;;;5012658;28;20561;-70
2023/09/01 10:47:46;;;;;;;0.20;0.20;;;22.00;99.90;;;;;;5012389;28;20195;-71
2023/09/01 10:50:13;;;;;;;0.10;0.10;;;22.00;99.90;;;;;;5012236;28;20551;-72
2023/09/01 10:52:39;;;;;;;1.08;0.32;;;22.20;99.90;;;;;;5012245;28;20191;-70
2023/09/01 10:55:09;;;;;;;0.10;0.10;;;22.10;99.90;;;;;;5012495;28;20211;-71
2023/09/01 10:57:49;;;;;;;0.20;0.20;;;21.90;99.90;;;;;;4994706;28;20202;-72
2023/09/01 11:00:31;;;;;;;0.35;0.30;;;22.20;99.90;;;;;;5012283;28;20194;-71
2023/09/01 11:03:33;;;;;;;0.20;0.20;;;22.50;99.90;;;;;;5012284;28;20190;-71
2023/09/01 11:06:00;;;;;;;0.10;0.10;;;22.40;99.90;;;;;;5012209;28;20225;-73
2023/09/01 11:08:27;;;;;;;0.47;0.25;;;22.20;99.90;;;;;;5011895;28;20680;-72
2023/09/01 11:10:55;;;;;;;0.03;0.03;;;21.80;99.90;;;;;;5012062;28;20644;-72
2023/09/01 11:13:22;;;;;;;0.00;0.00;;;21.60;99.90;;;;;;5012109;28;20269;-72
2023/09/01 11:15:50;;;;;;;0.10;0.10;;;21.40;99.90;;;;;;4994474;28;20205;-70
2023/09/01 11:18:21;;;;;;;21.27;0.90;;;21.10;99.90;;;;;;5012199;28;20199;-71
2023/09/01 11:20:48;;;;;;;0.10;0.10;;;20.70;99.90;;;;;;5012233;28;20277;-70
2023/09/01 11:23:19;;;;;;;0.10;0.10;;;20.60;99.90;;;;;;5027022;28;20229;-71
2023/09/01 11:25:45;;;;;;;0.20;0.20;;;20.80;99.90;;;;;;5031887;28;20224;-71
2023/09/01 11:28:13;;;;;;;0.57;0.40;;;21.40;99.90;;;;;;5031663;28;20229;-71
2023/09/01 11:30:54;;;;;;;0.20;0.20;;;21.70;99.90;;;;;;5031561;28;20229;-71
2023/09/01 11:33:24;;;;;;;0.00;0.00;;;21.90;99.90;;;;;;5031870;28;20194;-72
2023/09/01 11:36:06;;;;;;;0.35;0.32;;;22.00;99.90;;;;;;5014366;28;20569;-74
2023/09/01 11:38:32;;;;;;;0.10;0.10;;;22.10;99.90;;;;;;5014096;28;20198;-74
2023/09/01 11:40:59;;;;;;;0.10;0.10;;;21.90;99.90;;;;;;5012064;28;20195;-75
2023/09/01 11:43:25;;;;;;;0.98;0.13;;;21.80;99.90;;;;;;5012073;28;20195;-73
2023/09/01 11:45:51;;;;;;;0.47;0.20;;;21.90;99.90;;;;;;5012265;28;20203;-74
2023/09/01 11:48:28;;;;;;;0.00;0.00;;;21.90;99.90;;;;;;4994443;28;20646;-74
2023/09/01 11:50:54;;;;;;;0.63;0.20;;;22.40;99.90;;;;;;5012048;28;20684;-73
2023/09/01 11:53:32;;;;;;;0.10;0.10;;;22.70;99.90;;;;;;5011695;28;20199;-73
2023/09/01 11:55:59;;;;;;;2.83;1.08;;;22.80;99.90;;;;;;5011838;28;20287;-73
2023/09/01 11:58:45;;;;;;;0.30;0.30;;;23.40;99.90;;;;;;5011417;28;20706;-73
2023/09/01 12:01:16;;;;;;;0.10;0.10;;;23.50;99.90;;;;;;5011705;28;20619;-74
2023/09/01 12:03:47;;;;;;;0.10;0.10;;;23.10;99.90;;;;;;5011462;28;20209;-73
2023/09/01 12:06:24;;;;;;;0.35;0.20;;;23.10;99.90;;;;;;5011943;28;20199;-75
2023/09/01 12:08:52;;;;;;;0.10;0.10;;;23.40;99.90;;;;;;5012000;28;20213;-75
2023/09/01 12:11:19;;;;;;;0.25;0.25;;;23.10;99.90;;;;;;4995803;28;20681;-75
2023/09/01 12:13:48;;;;;;;0.00;0.00;;;22.90;99.90;;;;;;5011673;28;20206;-75
2023/09/01 12:16:21;;;;;;;0.13;0.08;;;22.60;99.90;;;;;;5011635;28;20191;-76
2023/09/01 12:18:48;;;;;;;0.00;0.00;;;22.40;99.90;;;;;;5020789;28;20290;-75
2023/09/01 12:21:14;;;;;;;0.50;0.22;;;22.50;99.90;;;;;;5033436;28;20198;-75
2023/09/01 12:23:42;;;;;;;0.13;0.13;;;22.60;99.90;;;;;;5017031;28;20209;-74
2023/09/01 12:26:09;;;;;;;0.20;0.20;;;22.70;99.90;;;;;;5034817;28;20273;-76
2023/09/01 12:28:36;;;;;;;0.20;0.20;;;22.70;99.90;;;;;;5034531;28;20226;-75
2023/09/01 12:31:05;;;;;;;0.30;0.30;;;23.00;99.90;;;;;;5016985;28;20559;-75
2023/09/01 12:33:31;;;;;;;0.43;0.32;;;23.20;99.90;;;;;;5027348;28;20202;-75
2023/09/01 12:35:57;;;;;;;0.13;0.13;;;23.60;99.90;;;;;;5014865;28;20658;-75
2023/09/01 12:38:23;;;;;;;0.20;0.10;;;23.80;99.90;;;;;;5014654;28;20191;-76
2023/09/01 12:40:49;;;;;;;0.17;0.17;;;23.90;99.90;;;;;;5014850;28;20203;-74
2023/09/01 12:43:15;;;;;;;0.10;0.10;;;23.80;99.90;;;;;;5014841;28;20191;-74
2023/09/01 12:45:42;;;;;;;0.20;0.20;;;23.60;99.90;;;;;;5014655;28;20653;-75
2023/09/01 12:48:07;;;;;;;0.35;0.20;;;23.40;99.90;;;;;;5014793;28;20206;-72
2023/09/01 12:50:33;;;;;;;1.70;0.30;;;23.20;99.90;;;;;;4996770;28;20646;-73
2023/09/01 12:52:59;;;;;;;0.10;0.10;;;23.00;99.90;;;;;;5014505;28;20198;-72
2023/09/01 12:55:26;;;;;;;0.10;0.10;;;23.40;99.90;;;;;;5014187;28;20602;-71
2023/09/01 12:57:55;;;;;;;0.20;0.20;;;23.30;99.90;;;;;;5010256;28;20221;-72
2023/09/01 13:00:23;;;;;;;0.10;0.10;;;22.90;99.90;;;;;;5014161;28;20253;-72